createdAt,value
2018-01-11T00:01:54.560Z,101310.86
2018-01-11T00:04:20.331Z,101317.38
2018-01-11T00:06:46.088Z,101314.36
2018-01-11T00:09:11.844Z,101312.16
2018-01-11T00:11:37.603Z,101306.08
2018-01-11T00:14:03.411Z,101309.52
2018-01-11T00:16:29.186Z,101310.87
2018-01-11T00:18:55.167Z,101311.30
2018-01-11T00:21:21.031Z,101312.50
2018-01-11T00:23:46.947Z,101309.94
2018-01-11T00:26:12.775Z,101317.77
2018-01-11T00:28:38.521Z,101307.77
2018-01-11T00:31:04.266Z,101315.56
2018-01-11T00:33:30.064Z,101313.37
2018-01-11T00:35:55.802Z,101313.80
2018-01-11T00:38:21.553Z,101321.65
2018-01-11T00:40:47.294Z,101321.65
2018-01-11T00:43:13.047Z,101325.56
2018-01-11T00:45:38.818Z,101322.59
2018-01-11T00:48:04.572Z,101318.28
2018-01-11T00:50:30.317Z,101315.09
2018-01-11T00:52:56.114Z,101324.19
2018-01-11T00:55:21.890Z,101322.01
2018-01-11T00:57:48.013Z,101324.98
2018-01-11T01:00:13.755Z,101321.97
2018-01-11T01:02:39.513Z,101326.75
2018-01-11T01:05:05.263Z,101325.91
2018-01-11T01:07:31.023Z,101324.59
2018-01-11T01:09:56.792Z,101335.92
2018-01-11T01:12:22.543Z,101332.34
2018-01-11T01:14:48.286Z,101334.91
2018-01-11T01:17:14.035Z,101337.02
2018-01-11T01:19:39.791Z,101341.31
2018-01-11T01:22:05.559Z,101340.45
2018-01-11T01:24:31.314Z,101341.30
2018-01-11T01:26:57.062Z,101343.91
2018-01-11T01:29:23.140Z,101345.23
2018-01-11T01:31:48.898Z,101350.05
2018-01-11T01:34:14.719Z,101355.67
2018-01-11T01:36:40.470Z,101359.53
2018-01-11T01:39:06.249Z,101349.53
2018-01-11T01:41:31.992Z,101347.84
2018-01-11T01:43:57.742Z,101354.25
2018-01-11T01:46:23.487Z,101352.56
2018-01-11T01:48:49.226Z,101353.05
2018-01-11T01:51:14.975Z,101353.65
2018-01-11T01:53:41.666Z,101353.70
2018-01-11T01:56:07.406Z,101352.35
2018-01-11T01:58:33.162Z,101355.84
2018-01-11T02:00:58.911Z,101360.62
2018-01-11T02:03:24.663Z,101355.34
2018-01-11T02:05:50.398Z,101357.98
2018-01-11T02:08:16.143Z,101367.54
2018-01-11T02:10:41.886Z,101369.77
2018-01-11T02:13:07.632Z,101364.53
2018-01-11T02:15:33.375Z,101364.97
2018-01-11T02:17:59.107Z,101368.45
2018-01-11T02:20:24.843Z,101364.05
2018-01-11T02:22:50.594Z,101363.33
2018-01-11T02:25:16.343Z,101370.32
2018-01-11T02:27:42.071Z,101372.89
2018-01-11T02:30:07.819Z,101369.36
2018-01-11T02:32:33.555Z,101367.56
2018-01-11T02:34:59.307Z,101367.56
2018-01-11T02:37:25.047Z,101366.22
2018-01-11T02:39:50.806Z,101378.42
2018-01-11T02:42:16.552Z,101376.31
2018-01-11T02:44:42.314Z,101379.34
2018-01-11T02:47:08.058Z,101383.70
2018-01-11T02:49:33.807Z,101384.11
2018-01-11T02:51:59.554Z,101379.30
2018-01-11T02:54:25.289Z,101375.47
2018-01-11T02:56:51.046Z,101382.44
2018-01-11T02:59:16.798Z,101390.23
2018-01-11T03:01:42.547Z,101392.45
2018-01-11T03:04:08.270Z,101380.06
2018-01-11T03:06:34.014Z,101380.06
2018-01-11T03:08:59.746Z,101383.56
2018-01-11T03:11:25.486Z,101380.09
2018-01-11T03:13:51.222Z,101380.15
2018-01-11T03:16:16.971Z,101386.14
2018-01-11T03:18:42.713Z,101382.56
2018-01-11T03:21:08.470Z,101379.11
2018-01-11T03:23:34.214Z,101380.51
2018-01-11T03:25:59.963Z,101379.74
2018-01-11T03:28:25.698Z,101379.77
2018-01-11T03:30:51.460Z,101375.41
2018-01-11T03:33:17.190Z,101383.22
2018-01-11T03:35:42.919Z,101383.69
2018-01-11T03:38:08.653Z,101385.46
2018-01-11T03:40:34.386Z,101399.02
2018-01-11T03:43:00.130Z,101397.70
2018-01-11T03:45:25.891Z,101395.09
2018-01-11T03:47:51.646Z,101392.89
2018-01-11T03:50:17.402Z,101397.25
2018-01-11T03:52:43.163Z,101401.49
2018-01-11T03:55:08.912Z,101404.02
2018-01-11T03:57:34.657Z,101402.02
2018-01-11T04:00:00.383Z,101408.52
2018-01-11T04:02:26.126Z,101409.41
2018-01-11T04:04:51.858Z,101405.50
2018-01-11T04:07:17.609Z,101405.09
2018-01-11T04:09:44.136Z,101410.30
2018-01-11T04:12:09.878Z,101408.17
2018-01-11T04:14:35.635Z,101414.26
2018-01-11T04:17:01.382Z,101416.05
2018-01-11T04:19:27.122Z,101415.64
2018-01-11T04:21:52.870Z,101420.45
2018-01-11T04:24:18.643Z,101418.12
2018-01-11T04:26:44.388Z,101423.73
2018-01-11T04:29:10.142Z,101417.64
2018-01-11T04:31:35.895Z,101417.77
2018-01-11T04:34:01.664Z,101420.41
2018-01-11T04:36:27.418Z,101426.50
2018-01-11T04:38:53.174Z,101428.76
2018-01-11T04:41:18.930Z,101429.56
2018-01-11T04:43:44.689Z,101430.83
2018-01-11T04:46:10.442Z,101428.19
2018-01-11T04:48:36.194Z,101424.37
2018-01-11T04:51:01.941Z,101431.34
2018-01-11T04:53:27.679Z,101425.94
2018-01-11T04:55:53.421Z,101436.38
2018-01-11T04:58:19.158Z,101445.03
2018-01-11T05:00:50.803Z,101447.63
2018-01-11T05:03:16.545Z,101452.67
2018-01-11T05:05:42.293Z,101457.78
2018-01-11T05:08:08.023Z,101459.12
2018-01-11T05:10:33.768Z,101461.23
2018-01-11T05:12:59.504Z,101458.62
2018-01-11T05:15:25.242Z,101459.98
2018-01-11T05:17:50.988Z,101465.62
2018-01-11T05:20:16.747Z,101469.16
2018-01-11T05:22:42.486Z,101469.70
2018-01-11T05:25:08.239Z,101468.35
2018-01-11T05:27:33.982Z,101468.30
2018-01-11T05:29:59.730Z,101471.69
2018-01-11T05:32:25.532Z,101475.61
2018-01-11T05:34:51.326Z,101472.11
2018-01-11T05:37:17.076Z,101474.69
2018-01-11T05:39:42.819Z,101478.19
2018-01-11T05:42:08.559Z,101486.28
2018-01-11T05:44:34.303Z,101494.80
2018-01-11T05:47:00.068Z,101494.01
2018-01-11T05:49:25.875Z,101496.15
2018-01-11T05:51:51.599Z,101503.59
2018-01-11T05:54:17.354Z,101510.12
2018-01-11T05:56:43.114Z,101507.14
2018-01-11T05:59:08.868Z,101506.54
2018-01-11T06:01:34.642Z,101512.21
2018-01-11T06:04:00.387Z,101513.02
2018-01-11T06:06:26.160Z,101510.48
2018-01-11T06:08:51.900Z,101513.88
2018-01-11T06:11:17.685Z,101511.22
2018-01-11T06:13:43.412Z,101510.25
2018-01-11T06:16:09.162Z,101521.61
2018-01-11T06:18:34.908Z,101523.31
2018-01-11T06:21:00.638Z,101520.25
2018-01-11T06:23:26.407Z,101526.78
2018-01-11T06:25:52.147Z,101527.67
2018-01-11T06:28:17.892Z,101532.17
2018-01-11T06:30:43.630Z,101532.55
2018-01-11T06:33:09.381Z,101537.94
2018-01-11T06:35:35.131Z,101543.11
2018-01-11T06:38:00.889Z,101539.66
2018-01-11T06:40:26.642Z,101550.55
2018-01-11T06:42:52.390Z,101549.98
2018-01-11T06:45:18.126Z,101554.77
2018-01-11T06:47:43.871Z,101559.13
2018-01-11T06:50:09.608Z,101561.70
2018-01-11T06:52:35.366Z,101569.42
2018-01-11T06:55:01.108Z,101580.81
2018-01-11T06:57:26.847Z,101578.25
2018-01-11T06:59:52.591Z,101581.78
2018-01-11T07:02:18.326Z,101582.91
2018-01-11T07:04:44.099Z,101589.44
2018-01-11T07:07:09.842Z,101590.86
2018-01-11T07:09:35.611Z,101591.19
2018-01-11T07:12:01.359Z,101592.43
2018-01-11T07:14:27.102Z,101598.95
2018-01-11T07:16:52.838Z,101595.63
2018-01-11T07:19:18.592Z,101596.04
2018-01-11T07:21:44.330Z,101600.11
2018-01-11T07:24:10.074Z,101602.89
2018-01-11T07:26:35.819Z,101605.56
2018-01-11T07:29:01.575Z,101602.45
2018-01-11T07:31:27.306Z,101606.05
2018-01-11T07:33:53.039Z,101601.28
2018-01-11T07:36:18.790Z,101605.11
2018-01-11T07:38:44.522Z,101610.13
2018-01-11T07:41:10.270Z,101620.50
2018-01-11T07:43:35.999Z,101615.22
2018-01-11T07:46:01.786Z,101608.70
2018-01-11T07:48:27.527Z,101615.25
2018-01-11T07:50:53.283Z,101612.77
2018-01-11T07:53:19.032Z,101614.08
2018-01-11T07:55:44.785Z,101618.65
2018-01-11T07:58:10.530Z,101625.65
2018-01-11T08:00:36.279Z,101626.13
2018-01-11T08:03:02.031Z,101630.95
2018-01-11T08:05:27.795Z,101633.09
2018-01-11T08:07:53.539Z,101635.64
2018-01-11T08:10:19.291Z,101643.06
2018-01-11T08:12:45.071Z,101644.48
2018-01-11T08:15:10.823Z,101647.37
2018-01-11T08:17:36.586Z,101653.54
2018-01-11T08:20:02.352Z,101650.36
2018-01-11T08:22:28.122Z,101652.83
2018-01-11T08:24:53.867Z,101666.64
2018-01-11T08:27:19.618Z,101673.13
2018-01-11T08:29:45.383Z,101677.14
2018-01-11T08:32:11.147Z,101677.68
2018-01-11T08:34:36.899Z,101679.11
2018-01-11T08:37:02.660Z,101679.20
2018-01-11T08:39:28.422Z,101675.13
2018-01-11T08:41:54.186Z,101682.17
2018-01-11T08:44:19.931Z,101686.23
2018-01-11T08:46:45.691Z,101683.27
2018-01-11T08:49:11.438Z,101701.31
2018-01-11T08:51:37.211Z,101698.94
2018-01-11T08:54:02.975Z,101695.82
2018-01-11T08:56:28.734Z,101700.63
2018-01-11T08:58:54.488Z,101700.21
2018-01-11T09:01:20.235Z,101707.63
2018-01-11T09:03:45.995Z,101695.97
2018-01-11T09:06:11.746Z,101709.09
2018-01-11T09:08:37.518Z,101711.28
2018-01-11T09:11:03.274Z,101722.12
2018-01-11T09:13:29.031Z,101720.39
2018-01-11T09:15:54.787Z,101723.01
2018-01-11T09:18:20.557Z,101723.06
2018-01-11T09:20:46.303Z,101722.30
2018-01-11T09:23:12.055Z,101716.39
2018-01-11T09:25:37.803Z,101721.31
2018-01-11T09:28:03.566Z,101720.37
2018-01-11T09:30:29.314Z,101719.53
2018-01-11T09:32:55.071Z,101724.41
2018-01-11T09:35:20.823Z,101725.58
2018-01-11T09:37:46.586Z,101729.08
2018-01-11T09:40:12.339Z,101734.89
2018-01-11T09:42:38.106Z,101737.09
2018-01-11T09:45:03.855Z,101737.12
2018-01-11T09:47:29.594Z,101737.09
2018-01-11T09:49:55.352Z,101742.03
2018-01-11T09:52:21.091Z,101740.31
2018-01-11T09:54:46.865Z,101739.98
2018-01-11T09:57:12.607Z,101744.56
2018-01-11T09:59:38.351Z,101744.13
2018-01-11T10:02:04.095Z,101738.88
2018-01-11T10:04:29.840Z,101744.31
2018-01-11T10:06:55.586Z,101739.88
2018-01-11T10:09:21.332Z,101737.36
2018-01-11T10:11:47.059Z,101745.23
2018-01-11T10:14:12.831Z,101735.77
2018-01-11T10:16:38.583Z,101737.06
2018-01-11T10:19:04.327Z,101738.87
2018-01-11T10:21:30.098Z,101743.27
2018-01-11T10:23:55.858Z,101738.92
2018-01-11T10:26:21.615Z,101746.64
2018-01-11T10:28:47.392Z,101741.36
2018-01-11T10:31:13.143Z,101748.02
2018-01-11T10:33:38.878Z,101751.48
2018-01-11T10:36:04.644Z,101746.59
2018-01-11T10:38:30.404Z,101752.34
2018-01-11T10:40:56.166Z,101745.01
2018-01-11T10:43:21.915Z,101749.78
2018-01-11T10:45:47.673Z,101748.98
2018-01-11T10:48:13.411Z,101748.14
2018-01-11T10:50:39.163Z,101749.38
2018-01-11T10:53:04.910Z,101752.45
2018-01-11T10:55:30.663Z,101756.86
2018-01-11T10:57:56.407Z,101748.17
2018-01-11T11:00:22.162Z,101756.05
2018-01-11T11:02:48.786Z,101755.70
2018-01-11T11:05:14.527Z,101751.72
2018-01-11T11:07:40.262Z,101759.13
2018-01-11T11:10:06.006Z,101756.93
2018-01-11T11:12:31.747Z,101755.73
2018-01-11T11:14:57.483Z,101757.53
2018-01-11T11:17:23.267Z,101763.55
2018-01-11T11:19:49.004Z,101764.09
2018-01-11T11:22:14.763Z,101767.58
2018-01-11T11:24:40.510Z,101766.23
2018-01-11T11:27:06.247Z,101769.77
2018-01-11T11:29:31.994Z,101769.39
2018-01-11T11:31:57.754Z,101775.52
2018-01-11T11:34:23.717Z,101775.91
2018-01-11T11:36:49.490Z,101774.66
2018-01-11T11:39:15.230Z,101781.19
2018-01-11T11:41:40.994Z,101774.28
2018-01-11T11:44:06.751Z,101773.89
2018-01-11T11:46:32.532Z,101776.13
2018-01-11T11:48:58.266Z,101775.23
2018-01-11T11:51:24.011Z,101769.13
2018-01-11T11:53:49.759Z,101774.35
2018-01-11T11:56:15.500Z,101778.73
2018-01-11T11:58:41.255Z,101771.34
2018-01-11T12:01:07.007Z,101772.30
2018-01-11T12:03:32.765Z,101774.48
2018-01-11T12:05:58.522Z,101775.45
2018-01-11T12:08:24.285Z,101768.41
2018-01-11T12:10:50.095Z,101774.95
2018-01-11T12:13:15.882Z,101776.73
2018-01-11T12:15:41.634Z,101786.75
2018-01-11T12:18:07.415Z,101781.55
2018-01-11T12:20:33.154Z,101780.61
2018-01-11T12:22:58.911Z,101781.02
2018-01-11T12:25:24.655Z,101782.79
2018-01-11T12:27:50.399Z,101790.22
2018-01-11T12:30:16.131Z,101792.41
2018-01-11T12:32:41.887Z,101790.70
2018-01-11T12:35:07.631Z,101792.42
2018-01-11T12:37:33.388Z,101785.41
2018-01-11T12:39:59.304Z,101792.42
2018-01-11T12:42:25.054Z,101796.37
2018-01-11T12:44:50.857Z,101795.45
2018-01-11T12:47:16.566Z,101796.39
2018-01-11T12:49:42.310Z,101805.56
2018-01-11T12:52:08.043Z,101800.73
2018-01-11T12:54:33.815Z,101804.25
2018-01-11T12:56:59.562Z,101800.34
2018-01-11T12:59:25.298Z,101810.30
2018-01-11T13:01:51.111Z,101809.38
2018-01-11T13:04:16.867Z,101810.72
2018-01-11T13:06:42.616Z,101808.97
2018-01-11T13:09:08.406Z,101808.57
2018-01-11T13:11:34.146Z,101807.20
2018-01-11T13:13:59.910Z,101808.92
2018-01-11T13:16:25.655Z,101809.86
2018-01-11T13:18:51.394Z,101818.11
2018-01-11T13:21:17.148Z,101818.97
2018-01-11T13:23:42.892Z,101818.97
2018-01-11T13:26:08.645Z,101822.45
2018-01-11T13:28:34.403Z,101825.51
2018-01-11T13:31:00.163Z,101825.08
2018-01-11T13:33:25.935Z,101834.65
2018-01-11T13:35:51.685Z,101828.55
2018-01-11T13:38:17.425Z,101836.43
2018-01-11T13:40:43.176Z,101840.31
2018-01-11T13:43:08.902Z,101836.43
2018-01-11T13:45:34.668Z,101839.91
2018-01-11T13:48:00.423Z,101844.83
2018-01-11T13:50:26.175Z,101847.44
2018-01-11T13:52:51.911Z,101854.75
2018-01-11T13:55:17.670Z,101851.73
2018-01-11T13:57:43.418Z,101852.26
2018-01-11T14:00:09.183Z,101860.07
2018-01-11T14:02:34.931Z,101856.17
2018-01-11T14:05:00.723Z,101866.19
2018-01-11T14:07:26.467Z,101862.21
2018-01-11T14:09:52.214Z,101867.47
2018-01-11T14:12:17.967Z,101870.56
2018-01-11T14:14:43.715Z,101868.02
2018-01-11T14:17:09.466Z,101866.73
2018-01-11T14:19:35.211Z,101868.56
2018-01-11T14:22:00.958Z,101872.42
2018-01-11T14:24:26.703Z,101878.98
2018-01-11T14:26:52.470Z,101882.47
2018-01-11T14:29:18.220Z,101888.16
2018-01-11T14:31:43.970Z,101881.58
2018-01-11T14:34:09.722Z,101882.89
2018-01-11T14:36:35.471Z,101886.84
2018-01-11T14:39:01.218Z,101890.77
2018-01-11T14:41:26.983Z,101893.42
2018-01-11T14:43:52.739Z,101897.41
2018-01-11T14:46:18.618Z,101899.62
2018-01-11T14:48:44.394Z,101898.70
2018-01-11T14:51:10.159Z,101903.12
2018-01-11T14:53:35.907Z,101900.55
2018-01-11T14:56:01.659Z,101905.38
2018-01-11T14:58:27.421Z,101901.94
2018-01-11T15:00:53.184Z,101911.55
2018-01-11T15:03:18.935Z,101905.94
2018-01-11T15:05:44.669Z,101908.56
2018-01-11T15:08:10.423Z,101917.30
2018-01-11T15:10:36.171Z,101911.22
2018-01-11T15:13:01.922Z,101911.61
2018-01-11T15:15:27.825Z,101912.95
2018-01-11T15:17:53.566Z,101911.67
2018-01-11T15:20:19.307Z,101913.81
2018-01-11T15:22:45.059Z,101918.24
2018-01-11T15:25:10.802Z,101914.78
2018-01-11T15:27:36.548Z,101915.59
2018-01-11T15:30:02.287Z,101917.83
2018-01-11T15:32:28.054Z,101919.52
2018-01-11T15:34:53.913Z,101917.77
2018-01-11T15:37:19.875Z,101925.19
2018-01-11T15:39:45.740Z,101925.64
2018-01-11T15:42:11.467Z,101919.50
2018-01-11T15:44:37.231Z,101925.19
2018-01-11T15:47:02.987Z,101924.25
2018-01-11T15:49:28.731Z,101929.52
2018-01-11T15:51:54.471Z,101936.06
2018-01-11T15:54:20.230Z,101927.78
2018-01-11T15:56:45.966Z,101932.52
2018-01-11T15:59:11.719Z,101936.90
2018-01-11T16:01:37.454Z,101932.08
2018-01-11T16:04:03.206Z,101928.13
2018-01-11T16:06:28.942Z,101932.47
2018-01-11T16:08:54.697Z,101930.73
2018-01-11T16:11:20.493Z,101934.19
2018-01-11T16:13:46.229Z,101932.00
2018-01-11T16:16:12.072Z,101932.58
2018-01-11T16:18:37.802Z,101935.78
2018-01-11T16:21:03.555Z,101938.80
2018-01-11T16:23:29.346Z,101937.45
2018-01-11T16:25:55.094Z,101935.76
2018-01-11T16:28:20.827Z,101944.91
2018-01-11T16:30:46.579Z,101953.91
2018-01-11T16:33:12.334Z,101952.72
2018-01-11T16:35:38.115Z,101953.58
2018-01-11T16:38:03.867Z,101955.81
2018-01-11T16:40:29.652Z,101960.92
2018-01-11T16:42:55.395Z,101961.61
2018-01-11T16:45:21.300Z,101963.47
2018-01-11T16:47:47.208Z,101968.55
2018-01-11T16:50:12.946Z,101968.99
2018-01-11T16:52:38.702Z,101967.16
2018-01-11T16:55:04.494Z,101974.15
2018-01-11T16:57:30.257Z,101978.61
2018-01-11T16:59:56.015Z,101979.94
2018-01-11T17:02:21.817Z,101980.90
2018-01-11T17:04:47.550Z,101983.34
2018-01-11T17:07:13.302Z,101982.73
2018-01-11T17:09:39.051Z,101981.30
2018-01-11T17:12:04.808Z,101982.17
2018-01-11T17:14:30.563Z,101989.52
2018-01-11T17:16:56.322Z,101988.38
2018-01-11T17:19:22.071Z,102000.03
2018-01-11T17:21:47.834Z,101992.66
2018-01-11T17:24:13.595Z,101999.58
2018-01-11T17:26:39.364Z,102000.73
2018-01-11T17:29:05.112Z,102002.81
2018-01-11T17:31:30.945Z,102002.78
2018-01-11T17:33:56.718Z,101999.63
2018-01-11T17:36:22.464Z,102007.91
2018-01-11T17:38:48.218Z,101999.45
2018-01-11T17:41:13.979Z,102007.84
2018-01-11T17:43:39.754Z,102013.39
2018-01-11T17:46:05.522Z,102011.54
2018-01-11T17:48:31.321Z,102016.08
2018-01-11T17:50:57.058Z,102015.43
2018-01-11T17:53:22.814Z,102019.83
2018-01-11T17:55:48.571Z,102029.40
2018-01-11T17:58:14.335Z,102026.17
2018-01-11T18:00:40.127Z,102034.02
2018-01-11T18:03:05.875Z,102032.63
2018-01-11T18:05:31.627Z,102036.63
2018-01-11T18:07:57.421Z,102033.05
2018-01-11T18:10:23.158Z,102038.34
2018-01-11T18:12:48.946Z,102040.89
2018-01-11T18:15:14.678Z,102038.89
2018-01-11T18:17:40.423Z,102047.84
2018-01-11T18:20:06.155Z,102044.05
2018-01-11T18:22:31.911Z,102041.06
2018-01-11T18:24:57.655Z,102041.58
2018-01-11T18:27:23.391Z,102037.17
2018-01-11T18:29:49.184Z,102042.68
2018-01-11T18:32:14.919Z,102044.30
2018-01-11T18:34:40.730Z,102041.55
2018-01-11T18:37:06.477Z,102043.23
2018-01-11T18:39:32.242Z,102043.58
2018-01-11T18:41:57.976Z,102049.14
2018-01-11T18:44:23.730Z,102044.88
2018-01-11T18:46:49.501Z,102045.02
2018-01-11T18:49:15.266Z,102040.95
2018-01-11T18:51:40.998Z,102039.41
2018-01-11T18:54:13.839Z,102051.66
2018-01-11T18:56:39.572Z,102051.25
2018-01-11T18:59:05.320Z,102047.70
2018-01-11T19:01:31.054Z,102053.00
2018-01-11T19:03:56.810Z,102053.00
2018-01-11T19:06:22.563Z,102050.35
2018-01-11T19:08:48.319Z,102043.87
2018-01-11T19:11:14.080Z,102056.95
2018-01-11T19:13:39.822Z,102058.74
2018-01-11T19:16:05.563Z,102061.02
2018-01-11T19:18:31.293Z,102064.52
2018-01-11T19:20:57.043Z,102067.59
2018-01-11T19:23:22.796Z,102067.20
2018-01-11T19:25:48.562Z,102075.05
2018-01-11T19:28:14.311Z,102080.31
2018-01-11T19:30:40.084Z,102082.14
2018-01-11T19:33:05.839Z,102080.94
2018-01-11T19:35:31.578Z,102078.83
2018-01-11T19:37:57.315Z,102081.45
2018-01-11T19:40:23.110Z,102082.38
2018-01-11T19:42:48.887Z,102084.20
2018-01-11T19:45:15.932Z,102091.19
2018-01-11T19:47:41.682Z,102086.40
2018-01-11T19:50:07.441Z,102089.11
2018-01-11T19:52:33.303Z,102094.38
2018-01-11T19:54:59.014Z,102100.50
2018-01-11T19:57:24.765Z,102097.06
2018-01-11T19:59:50.512Z,102107.12
2018-01-11T20:02:16.272Z,102103.64
2018-01-11T20:04:42.022Z,102111.07
2018-01-11T20:07:07.787Z,102106.64
2018-01-11T20:09:33.583Z,102113.24
2018-01-11T20:11:59.342Z,102109.25
2018-01-11T20:14:25.075Z,102111.94
2018-01-11T20:16:50.835Z,102106.19
2018-01-11T20:19:16.588Z,102114.14
2018-01-11T20:21:42.350Z,102107.63
2018-01-11T20:24:08.115Z,102116.82
2018-01-11T20:26:33.872Z,102120.71
2018-01-11T20:28:59.623Z,102132.87
2018-01-11T20:31:25.371Z,102134.76
2018-01-11T20:33:51.120Z,102132.48
2018-01-11T20:36:16.895Z,102135.52
2018-01-11T20:38:42.635Z,102133.77
2018-01-11T20:41:08.398Z,102137.66
2018-01-11T20:43:34.138Z,102140.75
2018-01-11T20:45:59.878Z,102145.05
2018-01-11T20:48:25.626Z,102146.81
2018-01-11T20:50:51.376Z,102148.50
2018-01-11T20:53:17.123Z,102149.27
2018-01-11T20:55:42.862Z,102143.61
2018-01-11T20:58:08.607Z,102149.70
2018-01-11T21:00:34.436Z,102146.27
2018-01-11T21:03:00.207Z,102142.86
2018-01-11T21:05:25.987Z,102151.84
2018-01-11T21:07:51.743Z,102157.70
2018-01-11T21:10:17.495Z,102156.77
2018-01-11T21:12:43.250Z,102161.11
2018-01-11T21:15:09.004Z,102166.75
2018-01-11T21:17:34.766Z,102167.30
2018-01-11T21:20:00.519Z,102170.74
2018-01-11T21:22:26.330Z,102170.74
2018-01-11T21:24:52.087Z,102175.87
2018-01-11T21:27:17.875Z,102171.02
2018-01-11T21:29:44.155Z,102172.77
2018-01-11T21:32:09.979Z,102180.11
2018-01-11T21:34:35.730Z,102176.08
2018-01-11T21:37:01.536Z,102181.45
2018-01-11T21:39:27.276Z,102178.48
2018-01-11T21:41:53.072Z,102183.03
2018-01-11T21:44:18.818Z,102182.58
2018-01-11T21:46:44.574Z,102188.30
2018-01-11T21:49:10.331Z,102190.98
2018-01-11T21:51:36.219Z,102192.11
2018-01-11T21:54:01.975Z,102191.55
2018-01-11T21:56:27.721Z,102190.28
2018-01-11T21:58:54.210Z,102204.22
2018-01-11T22:01:19.955Z,102202.84
2018-01-11T22:03:45.699Z,102201.01
2018-01-11T22:06:11.452Z,102210.09
2018-01-11T22:08:37.278Z,102203.25
2018-01-11T22:11:03.046Z,102206.20
2018-01-11T22:13:28.811Z,102212.59
2018-01-11T22:15:54.647Z,102210.05
2018-01-11T22:18:20.398Z,102217.86
2018-01-11T22:20:46.156Z,102221.96
2018-01-11T22:23:11.918Z,102231.72
2018-01-11T22:25:37.683Z,102242.39
2018-01-11T22:28:03.442Z,102240.75
2018-01-11T22:30:29.228Z,102250.31
2018-01-11T22:32:54.974Z,102260.81
2018-01-11T22:35:21.039Z,102256.93
2018-01-11T22:37:46.778Z,102261.67
2018-01-11T22:40:12.527Z,102251.66
2018-01-11T22:42:38.383Z,102255.95
2018-01-11T22:45:04.147Z,102252.85
2018-01-11T22:47:29.922Z,102257.67
2018-01-11T22:49:56.005Z,102255.60
2018-01-11T22:52:21.751Z,102267.36
2018-01-11T22:54:47.516Z,102269.16
2018-01-11T22:57:13.258Z,102280.84
2018-01-11T22:59:38.991Z,102275.20
2018-01-11T23:02:05.142Z,102270.87
2018-01-11T23:04:31.259Z,102270.87
2018-01-11T23:06:57.008Z,102274.80
2018-01-11T23:09:23.873Z,102278.67
2018-01-11T23:11:49.614Z,102287.37
2018-01-11T23:14:15.359Z,102291.63
2018-01-11T23:16:41.124Z,102298.57
2018-01-11T23:19:06.860Z,102299.91
2018-01-11T23:21:32.618Z,102298.98
2018-01-11T23:23:58.462Z,102311.52
2018-01-11T23:26:24.617Z,102302.08
2018-01-11T23:28:50.498Z,102304.20
2018-01-11T23:31:16.251Z,102305.42
2018-01-11T23:33:41.987Z,102297.58
2018-01-11T23:36:07.735Z,102305.84
2018-01-11T23:38:33.466Z,102306.20
2018-01-11T23:40:59.227Z,102314.09
2018-01-11T23:43:25.005Z,102312.65
2018-01-11T23:45:50.765Z,102315.80
2018-01-11T23:48:16.531Z,102319.23
2018-01-11T23:50:42.275Z,102313.59
2018-01-11T23:53:08.019Z,102321.84
2018-01-11T23:55:33.761Z,102325.77
2018-01-11T23:57:59.506Z,102326.58
